Aeroporto :
LOGIN :

Iscrizione | Disclaimer

   EN    FR    IT 

 










Sommario :    VFR   VFR Marginale   IFR   IFR Intensivo   IFR Molto Intensivo
Visibilità : 
Base nubi : 
>= 8 km
>= 3000ft
5 / 8 km
1000 / 3000 ft
1500m / 5 km
500 / 1000 ft
800 / 1500m
200 / 500 ft
< 800m
< 200 ft
Simboli :   Temporali  Nebbia  Neve Forte  Precipitazioni Forti  Vento > 20 kt
SIGMETs :   Varie  Temporali  Ghiacco  Turbolenza  Onda orograficha  Ceneri Vulcaniche






- Altitudine del aeroporto : 160 ft
- Codice IATA : LRT


LFRH - Lorient Lann Bihoue

ULTIMO METAR :
  • 072200Z AUTO 23014KT 9999 OVC022 12/09 Q1017 BECMG 22015G30KT BKN009 OVC016

METARs OBSOLETI :
  • 072130Z AUTO 23012KT 9999 OVC024 11/09 Q1017 BECMG 22015G30KT BKN009 OVC016
  • 072100Z AUTO 23010KT 9999 OVC024 11/08 Q1017 BECMG 22015G30KT BKN009 OVC016
  • 072030Z AUTO 24012KT 9999 OVC022 11/08 Q1017 BECMG 22015G30KT BKN009 OVC016
  • 072000Z AUTO 22011KT 9999 OVC023 11/08 Q1017 BECMG 22015G30KT BKN009 OVC016
  • 071930Z AUTO 22009KT 9999 OVC025 11/08 Q1018 BECMG 22015G30KT BKN009 OVC016

TAF TAF LFRH
Valido dal 07 a 18 ore il 08 a 18 ore UTC


071700Z 0718/0818 24008KT 9999 SCT018 BKN028
BECMG 0721/0724 22015G30KT BKN009 OVC016
BECMG 0801/0803 2000 RADZ BKN002 OVC005
PROB40
TEMPO 0802/0805 1000 +DZ VV///
BECMG 0805/0808 27012KT 9999 NSW BKN020 BKN050
BECMG 0811/0814 27020G35KT
TEMPO 0815/0818 27025G40KT 4000 SHRA BKN015CB



MetMap, La meteo Aeronautica in un colpo d'occhio ! - Copyright ORBIFLY Dicembre 2007 - Disclaimer

ORBIFLY MET'MAP TEAM :

Programmazione e sviluppo : Alexandra Zaïnal
Concezione : Baudouin d'Aumeries
Aiuto per la programmazione : Marc-Olivier Méhu
Supporto tecnico e logistico : Manuel Goepfert
Aiuto per la traduzione : Arnaldo La Scala

Contatto : metmap@orbifly.com




FONTI E CREDITI :

   NOAA